Time;durP1;ratioP1;P1;durP2;ratioP2;P2;SDS_P1;SDS_P2;PMS_P1;PMS_P2;Temp;Humidity;BMP_temperature;BMP_pressure;BME280_temperature;BME280_humidity;BME280_pressure;Samples;Min_cycle;Max_cycle;Signal;HPM_P1;HPM_P2
2020/12/12 00:01:52;;;;;;;4.05;2.65;;;22.90;47.00;;;;;;5106112;27;20094;-60
2020/12/12 00:04:18;;;;;;;5.65;2.90;;;22.90;47.00;;;;;;5118125;27;20346;-61
2020/12/12 00:06:44;;;;;;;3.90;2.40;;;22.90;47.00;;;;;;5111292;27;20031;-60
2020/12/12 00:09:09;;;;;;;3.65;2.47;;;22.90;47.00;;;;;;5129026;27;20077;-59
2020/12/12 00:11:35;;;;;;;3.85;2.63;;;23.00;47.10;;;;;;5130927;27;20027;-60
2020/12/12 00:14:01;;;;;;;3.03;2.17;;;22.90;47.10;;;;;;5114807;27;20458;-59
2020/12/12 00:16:26;;;;;;;3.60;2.45;;;22.90;47.00;;;;;;5114566;27;20029;-60
2020/12/12 00:18:52;;;;;;;4.10;2.63;;;22.90;46.90;;;;;;5115162;27;20028;-60
2020/12/12 00:21:21;;;;;;;4.45;2.40;;;22.90;46.90;;;;;;5120110;27;20059;-59
2020/12/12 00:23:47;;;;;;;;;;;23.00;47.00;;;;;;5119253;27;20494;-60
2020/12/12 00:26:17;;;;;;;3.20;2.10;;;22.90;46.90;;;;;;5121449;27;19911;-60
2020/12/12 00:28:43;;;;;;;4.60;2.67;;;22.90;46.90;;;;;;5128483;27;20084;-60
2020/12/12 00:31:09;;;;;;;3.03;2.10;;;22.90;46.90;;;;;;5130790;27;20035;-60
2020/12/12 00:33:34;;;;;;;4.55;2.70;;;22.90;46.90;;;;;;5115747;27;20036;-59
2020/12/12 00:36:00;;;;;;;3.90;2.47;;;22.90;46.90;;;;;;5117024;27;20051;-60
2020/12/12 00:38:26;;;;;;;4.07;2.53;;;22.80;46.90;;;;;;5139164;27;20027;-59
2020/12/12 00:40:58;;;;;;;3.22;2.20;;;22.80;46.90;;;;;;5127490;27;20265;-60
2020/12/12 00:43:24;;;;;;;3.75;2.25;;;22.80;47.00;;;;;;5117929;27;20039;-59
2020/12/12 00:45:50;;;;;;;5.70;2.35;;;22.70;46.90;;;;;;5133394;27;20076;-59
2020/12/12 00:48:16;;;;;;;3.70;2.20;;;22.70;46.90;;;;;;5125315;27;20031;-60
2020/12/12 00:50:46;;;;;;;3.42;2.20;;;22.70;47.00;;;;;;5120633;27;20032;-59
2020/12/12 00:53:12;;;;;;;4.88;2.40;;;22.60;47.00;;;;;;5118652;27;20031;-59
2020/12/12 00:55:37;;;;;;;4.40;2.40;;;22.60;47.00;;;;;;5147510;27;20022;-59
2020/12/12 00:58:03;;;;;;;3.83;2.28;;;22.60;47.00;;;;;;5131951;27;20447;-60
2020/12/12 01:00:33;;;;;;;4.50;2.40;;;22.60;47.10;;;;;;5119261;27;20023;-60
2020/12/12 01:03:02;;;;;;;4.10;2.35;;;22.50;47.00;;;;;;5108443;27;20456;-60
2020/12/12 01:05:29;;;;;;;3.22;2.08;;;22.50;47.10;;;;;;5115427;27;20035;-60
2020/12/12 01:07:54;;;;;;;3.35;1.95;;;22.50;47.10;;;;;;5132328;27;20532;-61
2020/12/12 01:10:20;;;;;;;3.08;2.03;;;22.40;47.10;;;;;;5135638;27;20110;-61
2020/12/12 01:12:47;;;;;;;3.17;2.00;;;22.40;47.10;;;;;;5119644;27;20657;-60
2020/12/12 01:15:12;;;;;;;2.90;1.90;;;22.40;47.10;;;;;;5118315;27;20026;-59
2020/12/12 01:17:38;;;;;;;3.75;2.35;;;22.40;47.10;;;;;;5138333;27;20049;-59
2020/12/12 01:20:04;;;;;;;4.40;2.35;;;22.30;47.10;;;;;;5126225;27;20031;-59
2020/12/12 01:22:30;;;;;;;3.67;2.05;;;22.30;47.10;;;;;;5126627;27;20027;-59
2020/12/12 01:24:55;;;;;;;3.13;1.92;;;22.30;47.10;;;;;;5119491;27;20023;-59
2020/12/12 01:27:21;;;;;;;3.13;1.90;;;22.30;47.20;;;;;;5123757;27;20091;-60
2020/12/12 01:29:46;;;;;;;2.88;1.88;;;22.30;47.20;;;;;;5133585;27;20140;-60
2020/12/12 01:32:14;;;;;;;3.33;1.98;;;22.30;47.20;;;;;;5114838;27;20035;-60
2020/12/12 01:34:39;;;;;;;3.33;1.85;;;22.20;47.20;;;;;;5123767;27;20046;-60
2020/12/12 01:37:05;;;;;;;3.30;2.05;;;22.20;47.30;;;;;;5121523;27;20450;-59
2020/12/12 01:39:30;;;;;;;3.10;1.90;;;22.20;47.30;;;;;;5144161;27;20102;-59
2020/12/12 01:41:56;;;;;;;3.92;2.00;;;22.20;47.30;;;;;;5137063;27;20023;-59
2020/12/12 01:44:22;;;;;;;3.42;2.00;;;22.10;47.20;;;;;;5149113;27;20050;-60
2020/12/12 01:46:48;;;;;;;2.67;1.70;;;22.10;47.30;;;;;;5129066;27;20202;-60
2020/12/12 01:49:14;;;;;;;2.95;1.95;;;22.10;47.30;;;;;;5127671;27;20035;-60
2020/12/12 01:51:43;;;;;;;3.17;2.17;;;22.10;47.30;;;;;;5100506;27;20061;-59
2020/12/12 01:54:09;;;;;;;3.42;2.00;;;22.10;47.30;;;;;;5122061;27;20054;-59
2020/12/12 01:56:35;;;;;;;3.47;2.10;;;22.00;47.30;;;;;;5125884;27;20104;-60
2020/12/12 01:59:01;;;;;;;3.70;1.95;;;22.00;47.40;;;;;;5118080;27;20028;-60
2020/12/12 02:01:29;;;;;;;3.22;1.90;;;22.00;47.90;;;;;;5117855;27;20030;-60
2020/12/12 02:03:57;;;;;;;3.30;2.00;;;22.00;47.40;;;;;;5110087;27;20040;-60
2020/12/12 02:06:22;;;;;;;2.65;1.85;;;21.90;47.40;;;;;;5121760;27;20043;-60
2020/12/12 02:08:52;;;;;;;3.97;2.00;;;21.90;47.40;;;;;;5122894;27;20046;-59
2020/12/12 02:11:19;;;;;;;2.83;2.00;;;21.90;47.40;;;;;;5125726;27;20058;-59
2020/12/12 02:13:48;;;;;;;2.60;1.67;;;21.90;47.40;;;;;;5119905;27;20034;-59
2020/12/12 02:16:18;;;;;;;2.70;1.70;;;21.90;47.50;;;;;;5113251;27;20516;-60
2020/12/12 02:18:44;;;;;;;2.50;1.52;;;21.80;47.50;;;;;;5133576;27;20019;-58
2020/12/12 02:21:10;;;;;;;2.70;1.60;;;21.80;47.50;;;;;;5119351;27;20454;-59
2020/12/12 02:23:36;;;;;;;3.13;1.73;;;21.80;47.50;;;;;;5115735;27;20058;-59
2020/12/12 02:26:03;;;;;;;2.85;1.70;;;21.70;47.50;;;;;;5133979;27;20588;-60
2020/12/12 02:28:54;;;;;;;2.75;1.60;;;21.70;47.50;;;;;;5138651;27;20078;-58
2020/12/12 02:31:15;;;;;;;2.53;1.80;;;21.70;47.50;;;;;;5120236;27;20122;-60
2020/12/12 02:33:41;;;;;;;3.05;1.60;;;21.70;47.50;;;;;;5120202;27;20137;-59
2020/12/12 02:36:07;;;;;;;2.83;1.80;;;21.70;47.60;;;;;;5122914;27;20499;-59
2020/12/12 02:38:33;;;;;;;2.30;1.58;;;21.70;47.60;;;;;;5122496;27;20599;-59
2020/12/12 02:41:00;;;;;;;4.25;1.77;;;21.70;47.70;;;;;;5125159;27;20103;-59
2020/12/12 02:43:25;;;;;;;2.85;1.88;;;21.60;47.60;;;;;;5124445;27;20106;-60
2020/12/12 02:45:51;;;;;;;2.28;1.60;;;21.60;47.60;;;;;;5121478;27;20110;-59
2020/12/12 02:48:17;;;;;;;2.78;1.70;;;21.60;47.60;;;;;;5122132;27;20372;-60
2020/12/12 02:50:43;;;;;;;2.70;1.63;;;21.60;47.70;;;;;;5112575;27;20019;-59
2020/12/12 02:53:09;;;;;;;3.00;1.65;;;21.60;47.80;;;;;;5120405;27;20046;-59
2020/12/12 02:55:35;;;;;;;3.92;1.80;;;21.50;47.70;;;;;;5125778;27;20121;-59
2020/12/12 02:58:01;;;;;;;2.60;1.73;;;21.50;47.70;;;;;;5122613;27;20196;-60
2020/12/12 03:00:27;;;;;;;2.80;1.60;;;21.50;47.70;;;;;;5108585;27;20015;-60
2020/12/12 03:02:52;;;;;;;2.90;1.60;;;21.50;47.70;;;;;;5127219;27;20020;-59
2020/12/12 03:05:19;;;;;;;2.67;1.70;;;21.50;47.70;;;;;;5123560;27;20023;-60
2020/12/12 03:07:44;;;;;;;2.38;1.50;;;21.50;47.80;;;;;;5120853;27;20069;-59
2020/12/12 03:10:10;;;;;;;2.40;1.60;;;21.40;47.80;;;;;;5125164;27;20059;-60
2020/12/12 03:12:38;;;;;;;2.97;1.70;;;21.40;47.80;;;;;;5127674;27;20065;-59
2020/12/12 03:15:08;;;;;;;2.15;1.50;;;21.40;47.80;;;;;;5109327;27;20242;-60
2020/12/12 03:17:34;;;;;;;2.55;1.70;;;21.40;47.90;;;;;;5130218;27;20026;-59
2020/12/12 03:20:00;;;;;;;2.22;1.63;;;21.30;47.90;;;;;;5132839;27;20107;-60
2020/12/12 03:22:26;;;;;;;2.50;1.63;;;21.30;47.90;;;;;;5130875;27;20051;-59
2020/12/12 03:24:51;;;;;;;2.35;1.40;;;21.30;47.90;;;;;;5125411;27;20062;-59
2020/12/12 03:27:17;;;;;;;2.28;1.60;;;21.30;48.00;;;;;;5116870;27;20092;-59
2020/12/12 03:29:43;;;;;;;2.67;1.48;;;21.30;48.00;;;;;;5120774;27;20426;-58
2020/12/12 03:32:10;;;;;;;2.90;1.77;;;21.30;48.00;;;;;;5117997;27;20370;-59
2020/12/12 03:34:37;;;;;;;2.45;1.63;;;21.20;48.00;;;;;;5140016;27;20069;-59
2020/12/12 03:37:04;;;;;;;2.60;1.80;;;21.20;48.00;;;;;;5142515;27;20450;-59
2020/12/12 03:39:30;;;;;;;2.15;1.30;;;21.20;48.00;;;;;;5132021;27;20359;-59
2020/12/12 03:41:56;;;;;;;1.85;1.38;;;21.20;48.10;;;;;;5112905;27;20028;-59
2020/12/12 03:44:22;;;;;;;2.53;1.50;;;21.20;48.10;;;;;;5120584;27;20031;-59
2020/12/12 03:46:47;;;;;;;1.85;1.25;;;21.20;48.20;;;;;;5129947;27;20031;-59
2020/12/12 03:49:13;;;;;;;2.35;1.55;;;21.10;48.10;;;;;;5118512;27;20531;-59
2020/12/12 03:51:38;;;;;;;2.22;1.60;;;21.10;48.20;;;;;;5117738;27;20066;-60
2020/12/12 03:54:04;;;;;;;2.08;1.42;;;21.10;48.20;;;;;;5127994;27;20080;-60
2020/12/12 03:56:30;;;;;;;2.20;1.30;;;21.10;48.30;;;;;;5132580;27;20110;-60
2020/12/12 03:58:55;;;;;;;1.80;1.30;;;21.10;48.30;;;;;;5117938;27;20027;-60
2020/12/12 04:01:21;;;;;;;2.50;1.50;;;21.10;48.30;;;;;;5120477;27;20027;-59
2020/12/12 04:03:46;;;;;;;3.10;1.65;;;21.00;48.20;;;;;;5120773;27;20061;-60
2020/12/12 04:06:12;;;;;;;2.08;1.33;;;21.00;48.20;;;;;;5121083;28;20027;-59
2020/12/12 04:08:37;;;;;;;2.72;1.40;;;21.00;48.70;;;;;;5116895;28;20031;-59
2020/12/12 04:11:03;;;;;;;1.67;1.27;;;21.00;48.20;;;;;;5119092;27;20027;-60
2020/12/12 04:13:29;;;;;;;1.60;1.20;;;21.00;48.20;;;;;;5108256;27;20150;-60
2020/12/12 04:15:55;;;;;;;2.22;1.30;;;21.00;48.20;;;;;;5105625;27;20039;-59
2020/12/12 04:18:21;;;;;;;2.05;1.20;;;21.00;48.30;;;;;;5124610;27;20027;-59
2020/12/12 04:20:47;;;;;;;1.85;1.30;;;21.00;48.80;;;;;;5117623;28;20023;-60
2020/12/12 04:23:13;;;;;;;1.85;1.30;;;21.00;48.30;;;;;;5108114;27;20028;-59
2020/12/12 04:25:39;;;;;;;2.10;1.30;;;20.90;48.20;;;;;;5131067;27;20039;-60
2020/12/12 04:28:04;;;;;;;1.75;1.30;;;20.90;48.30;;;;;;5122565;27;20046;-60
2020/12/12 04:30:30;;;;;;;1.85;1.30;;;20.90;48.30;;;;;;5113707;28;20096;-60
2020/12/12 04:32:55;;;;;;;1.60;1.20;;;20.90;48.30;;;;;;5119654;27;20070;-58
2020/12/12 04:35:21;;;;;;;1.67;1.20;;;20.90;48.30;;;;;;5122150;27;20031;-60
2020/12/12 04:37:47;;;;;;;2.30;1.40;;;20.90;48.30;;;;;;5120607;27;20023;-61
2020/12/12 04:40:13;;;;;;;3.25;1.30;;;20.90;48.30;;;;;;5128254;27;20115;-59
2020/12/12 04:42:42;;;;;;;2.03;1.40;;;20.90;48.30;;;;;;5130946;27;20027;-59
2020/12/12 04:45:11;;;;;;;2.17;1.38;;;20.90;48.40;;;;;;5124982;27;20034;-60
2020/12/12 04:47:42;;;;;;;2.80;1.30;;;20.90;48.40;;;;;;5107405;27;20044;-60
2020/12/12 04:50:08;;;;;;;1.88;1.10;;;20.90;48.40;;;;;;5121501;27;20088;-59
2020/12/12 04:52:39;;;;;;;1.90;1.33;;;20.90;48.40;;;;;;5119360;27;20084;-59
2020/12/12 04:55:06;;;;;;;1.98;1.30;;;20.90;48.40;;;;;;5120530;27;20115;-60
2020/12/12 04:57:38;;;;;;;2.08;1.35;;;20.90;48.50;;;;;;5120537;27;20565;-59
2020/12/12 05:00:10;;;;;;;2.28;1.38;;;20.90;48.50;;;;;;5126041;27;20528;-59
2020/12/12 05:02:36;;;;;;;1.77;1.20;;;20.90;48.50;;;;;;5115667;27;20031;-59
2020/12/12 05:05:06;;;;;;;2.08;1.13;;;20.90;48.50;;;;;;5121235;27;20031;-60
2020/12/12 05:07:31;;;;;;;1.83;1.20;;;20.80;48.40;;;;;;5126118;27;20085;-59
2020/12/12 05:09:58;;;;;;;2.40;1.20;;;20.80;48.40;;;;;;5126707;27;20035;-60
2020/12/12 05:12:24;;;;;;;1.55;1.10;;;20.80;48.40;;;;;;5119933;27;20036;-60
2020/12/12 05:14:50;;;;;;;1.85;1.20;;;20.80;48.40;;;;;;5118943;27;20044;-60
2020/12/12 05:17:18;;;;;;;1.63;1.00;;;20.80;48.50;;;;;;5125795;27;20057;-60
2020/12/12 05:19:47;;;;;;;1.60;1.00;;;20.80;48.50;;;;;;5112730;27;20031;-59
2020/12/12 05:22:12;;;;;;;1.70;1.15;;;20.80;48.50;;;;;;5120105;27;20046;-59
2020/12/12 05:24:38;;;;;;;1.63;1.20;;;20.80;48.50;;;;;;5124391;27;20390;-61
2020/12/12 05:27:05;;;;;;;1.42;1.10;;;20.80;48.50;;;;;;5136556;27;20042;-60
2020/12/12 05:29:31;;;;;;;1.48;1.00;;;20.80;48.50;;;;;;5136523;27;20105;-59
2020/12/12 05:31:57;;;;;;;1.88;1.20;;;20.80;48.60;;;;;;5124715;27;20493;-59
2020/12/12 05:34:24;;;;;;;1.70;1.10;;;20.80;48.60;;;;;;5124538;27;20110;-61
2020/12/12 05:36:50;;;;;;;1.95;1.10;;;20.80;48.60;;;;;;5121365;27;20075;-60
2020/12/12 05:39:17;;;;;;;1.88;1.20;;;20.80;48.60;;;;;;5119986;27;20070;-61
2020/12/12 05:41:43;;;;;;;1.40;1.10;;;20.80;48.60;;;;;;5124589;27;20206;-60
2020/12/12 05:44:10;;;;;;;1.60;1.20;;;20.80;48.60;;;;;;5108065;28;20024;-60
2020/12/12 05:46:38;;;;;;;1.42;1.00;;;20.70;48.50;;;;;;5111993;27;20402;-60
2020/12/12 05:49:05;;;;;;;1.63;1.05;;;20.70;48.60;;;;;;5129328;27;20027;-60
2020/12/12 05:51:31;;;;;;;1.83;1.20;;;20.70;48.60;;;;;;5123906;27;20067;-60
2020/12/12 05:53:58;;;;;;;1.40;1.00;;;20.70;48.60;;;;;;5121801;27;20070;-60
2020/12/12 05:56:24;;;;;;;1.95;1.20;;;20.70;48.60;;;;;;5125033;27;20035;-59
2020/12/12 05:58:52;;;;;;;1.88;1.10;;;20.70;48.60;;;;;;5127123;27;20019;-60
2020/12/12 06:01:23;;;;;;;1.30;1.00;;;20.70;48.60;;;;;;5118708;27;20401;-60
2020/12/12 06:04:10;;;;;;;1.42;0.95;;;20.70;48.70;;;;;;5109038;27;20019;-60
2020/12/12 06:06:46;;;;;;;1.90;1.20;;;20.70;48.60;;;;;;5117488;27;20066;-59
2020/12/12 06:09:14;;;;;;;1.80;1.30;;;20.70;48.70;;;;;;5142505;27;20371;-59
2020/12/12 06:11:44;;;;;;;1.45;1.00;;;20.70;48.70;;;;;;5120843;27;20466;-60
2020/12/12 06:14:10;;;;;;;1.77;1.00;;;20.70;48.70;;;;;;5109379;27;20028;-60
2020/12/12 06:16:36;;;;;;;1.63;1.08;;;20.70;48.70;;;;;;5116131;27;20478;-60
2020/12/12 06:19:10;;;;;;;1.63;1.08;;;20.70;48.70;;;;;;5128517;27;20023;-59
2020/12/12 06:21:38;;;;;;;1.52;1.00;;;20.70;48.70;;;;;;5125769;27;20490;-60
2020/12/12 06:24:05;;;;;;;1.77;1.20;;;20.60;48.70;;;;;;5123124;27;20423;-61
2020/12/12 06:26:54;;;;;;;3.15;1.20;;;20.60;48.70;;;;;;5134639;27;20035;-60
2020/12/12 06:29:20;;;;;;;1.45;1.10;;;20.60;48.70;;;;;;5133118;27;20037;-59
2020/12/12 06:31:47;;;;;;;1.88;1.05;;;20.60;48.70;;;;;;5117648;27;20366;-60
2020/12/12 06:34:13;;;;;;;2.00;1.10;;;20.60;49.20;;;;;;5117039;27;20050;-62
2020/12/12 06:36:45;;;;;;;2.05;1.10;;;20.60;48.70;;;;;;5111976;27;20027;-60
2020/12/12 06:39:26;;;;;;;2.00;1.20;;;20.60;48.70;;;;;;5117034;27;20031;-61
2020/12/12 06:41:54;;;;;;;1.35;1.00;;;20.60;48.70;;;;;;5124975;27;20132;-60
2020/12/12 06:44:31;;;;;;;1.85;1.10;;;20.60;48.70;;;;;;5119573;27;20164;-60
2020/12/12 06:46:56;;;;;;;1.45;1.00;;;20.60;48.70;;;;;;5127590;27;20652;-60
2020/12/12 06:49:22;;;;;;;2.38;1.13;;;20.60;48.80;;;;;;5118206;27;20121;-60
2020/12/12 06:51:54;;;;;;;1.80;1.20;;;20.60;48.80;;;;;;5108740;27;20186;-59
2020/12/12 06:54:20;;;;;;;2.35;1.20;;;20.50;48.70;;;;;;5121391;27;20038;-60
2020/12/12 06:56:47;;;;;;;1.85;1.08;;;20.60;48.80;;;;;;5120853;27;20027;-61
2020/12/12 06:59:35;;;;;;;2.00;1.27;;;20.50;48.80;;;;;;5124572;27;20027;-59
2020/12/12 07:02:01;;;;;;;2.05;1.23;;;20.50;48.80;;;;;;5120196;27;20498;-59
2020/12/12 07:04:28;;;;;;;2.17;1.30;;;20.50;48.80;;;;;;5114146;27;20020;-60
2020/12/12 07:07:03;;;;;;;2.75;1.20;;;20.50;48.70;;;;;;5124920;27;20507;-59
2020/12/12 07:09:29;;;;;;;2.58;1.35;;;20.50;48.80;;;;;;5130142;27;20499;-59
2020/12/12 07:11:56;;;;;;;2.17;1.20;;;20.50;48.80;;;;;;5121261;27;20118;-59
2020/12/12 07:14:22;;;;;;;1.80;1.20;;;20.50;48.80;;;;;;5121625;27;20030;-60
2020/12/12 07:16:58;;;;;;;2.63;1.52;;;20.50;48.80;;;;;;5117588;27;20081;-59
2020/12/12 07:19:40;;;;;;;2.47;1.50;;;20.50;48.80;;;;;;5123447;27;20110;-60
2020/12/12 07:22:10;;;;;;;2.60;1.52;;;20.50;48.80;;;;;;5116813;27;20056;-59
2020/12/12 07:24:36;;;;;;;;;;;20.50;48.80;;;;;;5122593;27;20382;-60
2020/12/12 07:27:03;;;;;;;2.63;1.70;;;20.50;48.70;;;;;;5131656;27;19910;-60
2020/12/12 07:29:29;;;;;;;2.67;1.67;;;20.50;48.80;;;;;;5127370;27;20505;-59
2020/12/12 07:31:55;;;;;;;2.67;1.77;;;20.50;48.80;;;;;;5112149;27;20494;-60
2020/12/12 07:34:22;;;;;;;3.17;2.10;;;20.50;48.80;;;;;;5121650;27;20038;-60
2020/12/12 07:37:06;;;;;;;3.30;1.75;;;20.40;48.70;;;;;;5123888;27;20106;-61
2020/12/12 07:39:33;;;;;;;3.33;1.83;;;20.40;48.80;;;;;;5115832;27;20564;-61
2020/12/12 07:42:01;;;;;;;2.97;1.73;;;20.40;48.70;;;;;;5107066;27;20035;-60
2020/12/12 07:44:30;;;;;;;2.90;1.70;;;20.40;48.80;;;;;;5114786;27;20493;-60
2020/12/12 07:47:16;;;;;;;;;;;20.40;48.80;;;;;;5115458;27;20114;-60
2020/12/12 07:49:41;;;;;;;2.83;1.73;;;20.40;48.80;;;;;;5125348;27;20033;-61
2020/12/12 07:52:12;;;;;;;2.75;1.70;;;20.40;48.80;;;;;;5118438;27;20126;-61
2020/12/12 07:54:44;;;;;;;2.90;1.90;;;20.40;48.80;;;;;;5118914;27;20039;-59
2020/12/12 07:57:14;;;;;;;3.67;1.83;;;20.40;48.80;;;;;;5121646;27;20039;-61
2020/12/12 07:59:41;;;;;;;2.83;1.77;;;20.40;48.90;;;;;;5114168;27;20043;-60
2020/12/12 08:02:07;;;;;;;3.33;1.88;;;20.40;48.80;;;;;;5114943;27;20085;-61
2020/12/12 08:04:34;;;;;;;2.70;1.80;;;20.40;48.90;;;;;;5112973;27;20102;-60
2020/12/12 08:07:19;;;;;;;3.10;1.90;;;20.30;48.80;;;;;;5099059;28;20028;-61
2020/12/12 08:09:47;;;;;;;3.00;1.95;;;20.30;48.80;;;;;;5116449;28;20440;-59
2020/12/12 08:12:31;;;;;;;2.50;1.77;;;20.30;48.90;;;;;;5122658;27;20418;-60
2020/12/12 08:15:25;;;;;;;4.50;1.80;;;20.40;48.90;;;;;;5128694;27;20414;-61
2020/12/12 08:17:50;;;;;;;3.17;1.70;;;20.40;49.00;;;;;;5122276;27;20036;-60
2020/12/12 08:20:23;;;;;;;3.05;1.75;;;20.30;48.80;;;;;;5120168;28;20113;-61
2020/12/12 08:22:49;;;;;;;3.50;2.15;;;20.40;48.90;;;;;;5117907;27;20028;-59
2020/12/12 08:25:17;;;;;;;3.13;1.98;;;20.30;48.90;;;;;;5126428;27;20032;-60
2020/12/12 08:27:43;;;;;;;3.05;1.90;;;20.30;48.90;;;;;;5131939;27;20027;-59
2020/12/12 08:30:09;;;;;;;3.33;1.90;;;20.40;49.00;;;;;;5130376;27;20122;-61
2020/12/12 08:32:42;;;;;;;2.90;1.80;;;20.40;49.00;;;;;;5130146;27;20490;-60
2020/12/12 08:35:26;;;;;;;3.63;1.92;;;20.30;48.90;;;;;;5101702;27;20388;-60
2020/12/12 08:38:11;;;;;;;3.88;2.15;;;20.30;48.90;;;;;;5126862;27;20023;-60
2020/12/12 08:40:44;;;;;;;5.47;2.10;;;20.30;48.90;;;;;;5126723;27;20091;-60
2020/12/12 08:43:12;;;;;;;4.28;2.30;;;20.30;48.90;;;;;;5119623;27;20311;-59
2020/12/12 08:45:43;;;;;;;3.95;2.20;;;20.30;49.00;;;;;;5116843;27;20092;-60
2020/12/12 08:48:15;;;;;;;4.25;2.33;;;20.30;49.00;;;;;;5114268;27;20027;-60
2020/12/12 08:50:49;;;;;;;4.05;2.20;;;20.30;49.00;;;;;;5126171;27;20027;-61
2020/12/12 08:53:24;;;;;;;4.40;2.22;;;20.30;49.00;;;;;;5123355;27;20545;-60
2020/12/12 08:56:18;;;;;;;4.78;2.40;;;20.30;49.00;;;;;;5123647;27;20027;-60
2020/12/12 08:58:45;;;;;;;7.15;3.60;;;20.30;49.10;;;;;;5119140;27;20031;-60
2020/12/12 09:01:35;;;;;;;6.80;3.58;;;20.30;49.50;;;;;;5110831;27;20055;-61
2020/12/12 09:04:01;;;;;;;5.68;3.50;;;20.40;49.50;;;;;;5124272;27;20038;-61
2020/12/12 09:06:29;;;;;;;6.85;3.70;;;20.60;49.30;;;;;;5118526;27;20060;-61
2020/12/12 09:09:13;;;;;;;6.18;3.42;;;20.80;49.10;;;;;;5146328;27;20050;-60
2020/12/12 09:11:44;;;;;;;7.35;3.10;;;20.90;48.70;;;;;;5132866;27;20027;-61
2020/12/12 09:14:11;;;;;;;5.63;3.30;;;21.00;48.50;;;;;;5119347;27;20033;-61
2020/12/12 09:16:38;;;;;;;7.93;3.53;;;21.20;48.30;;;;;;5124494;27;20072;-60
2020/12/12 09:19:05;;;;;;;6.13;3.60;;;21.30;48.10;;;;;;5120633;27;20023;-60
2020/12/12 09:21:35;;;;;;;6.05;3.67;;;21.30;48.00;;;;;;5119888;27;20027;-60
2020/12/12 09:24:01;;;;;;;6.85;4.03;;;21.40;47.90;;;;;;5113992;27;20201;-61
2020/12/12 09:26:27;;;;;;;6.35;3.50;;;21.50;47.80;;;;;;5121211;27;20037;-60
2020/12/12 09:28:53;;;;;;;7.85;3.95;;;21.60;47.60;;;;;;5135734;27;20039;-61
2020/12/12 09:31:20;;;;;;;8.80;4.47;;;21.70;47.40;;;;;;5119749;27;20131;-60
2020/12/12 09:33:45;;;;;;;10.70;4.00;;;21.90;47.20;;;;;;5119185;27;20382;-61
2020/12/12 09:36:11;;;;;;;6.55;4.03;;;22.00;47.00;;;;;;5107437;27;20108;-57
2020/12/12 09:38:37;;;;;;;6.90;3.67;;;22.10;46.90;;;;;;5124942;27;20388;-61
2020/12/12 09:41:03;;;;;;;5.32;3.60;;;22.20;46.90;;;;;;5127275;27;20034;-61
2020/12/12 09:43:29;;;;;;;7.00;3.72;;;22.30;46.70;;;;;;5126292;27;20740;-61
2020/12/12 09:45:55;;;;;;;6.50;3.40;;;22.30;46.50;;;;;;5121633;27;20080;-60
2020/12/12 09:48:20;;;;;;;6.50;3.53;;;22.40;46.40;;;;;;5119054;27;20118;-60
2020/12/12 09:50:46;;;;;;;6.75;3.40;;;22.50;46.30;;;;;;5122900;27;20027;-61
2020/12/12 09:53:12;;;;;;;6.05;3.42;;;22.60;46.20;;;;;;5118406;27;20050;-60
2020/12/12 09:55:39;;;;;;;5.53;3.40;;;22.70;46.00;;;;;;5133536;27;20063;-60
2020/12/12 09:58:09;;;;;;;7.50;3.67;;;22.80;45.80;;;;;;5124534;27;20038;-61
2020/12/12 10:00:36;;;;;;;6.45;3.38;;;22.90;45.60;;;;;;5124976;27;20019;-61
2020/12/12 10:03:03;;;;;;;7.10;3.75;;;23.00;45.50;;;;;;5117447;27;20101;-62
2020/12/12 10:05:29;;;;;;;6.00;3.45;;;23.00;45.30;;;;;;5129338;27;20118;-60
2020/12/12 10:07:56;;;;;;;4.50;2.90;;;23.10;45.20;;;;;;5132960;27;20046;-61
2020/12/12 10:10:26;;;;;;;6.18;3.10;;;23.00;45.20;;;;;;5128787;27;20031;-61
2020/12/12 10:12:51;;;;;;;;;;;23.00;45.40;;;;;;5121060;27;20095;-59
2020/12/12 10:15:18;;;;;;;6.03;3.20;;;22.90;45.40;;;;;;5122828;27;19947;-59
2020/12/12 10:17:45;;;;;;;6.43;3.17;;;22.90;45.50;;;;;;5138382;27;20042;-60
2020/12/12 10:20:11;;;;;;;7.63;3.42;;;22.90;45.50;;;;;;5123143;27;20051;-60
2020/12/12 10:22:36;;;;;;;6.18;3.20;;;22.90;45.60;;;;;;5117132;27;20063;-61
2020/12/12 10:25:04;;;;;;;5.38;3.08;;;22.90;45.60;;;;;;5117630;27;20511;-60
2020/12/12 10:27:29;;;;;;;5.40;2.92;;;22.90;45.60;;;;;;5123131;27;20031;-61
2020/12/12 10:29:55;;;;;;;5.85;3.08;;;22.90;45.60;;;;;;5107487;27;20634;-60
2020/12/12 10:32:20;;;;;;;6.47;3.35;;;22.90;45.70;;;;;;5118221;27;20446;-61
2020/12/12 10:34:46;;;;;;;4.72;2.92;;;22.90;45.70;;;;;;5123394;27;20023;-61
2020/12/12 10:37:12;;;;;;;4.85;3.13;;;22.90;45.80;;;;;;5109357;27;20134;-60
2020/12/12 10:40:23;;;;;;;5.80;3.10;;;22.90;45.80;;;;;;5121682;27;20028;-60
2020/12/12 10:42:26;;;;;;;5.68;2.92;;;22.90;45.90;;;;;;5110068;27;20122;-59
2020/12/12 10:44:51;;;;;;;5.75;3.45;;;23.00;46.00;;;;;;5117876;27;20134;-61
2020/12/12 10:47:17;;;;;;;6.22;3.00;;;23.00;45.90;;;;;;5118176;27;20037;-62
2020/12/12 10:49:43;;;;;;;6.32;3.08;;;22.90;45.90;;;;;;5129567;27;20033;-62
2020/12/12 10:52:08;;;;;;;6.38;3.15;;;22.90;46.00;;;;;;5116639;27;20035;-61
2020/12/12 10:54:34;;;;;;;5.78;3.10;;;22.80;46.00;;;;;;5126982;27;20556;-62
2020/12/12 10:57:00;;;;;;;4.72;3.17;;;22.80;46.00;;;;;;5119642;27;20045;-61
2020/12/12 10:59:26;;;;;;;5.22;3.10;;;22.80;46.10;;;;;;5135135;27;20038;-60
2020/12/12 11:01:55;;;;;;;5.28;3.08;;;22.80;46.20;;;;;;5115679;27;20031;-61
2020/12/12 11:04:22;;;;;;;5.75;3.30;;;22.80;46.20;;;;;;5106385;27;20147;-62
2020/12/12 11:06:48;;;;;;;5.40;3.28;;;22.80;46.30;;;;;;5133623;27;20138;-62
2020/12/12 11:09:14;;;;;;;5.15;3.40;;;22.90;46.20;;;;;;5117036;27;20086;-61
2020/12/12 11:11:40;;;;;;;6.95;3.58;;;22.90;46.00;;;;;;5112382;27;20539;-62
2020/12/12 11:14:07;;;;;;;4.60;2.90;;;22.90;45.90;;;;;;5126432;27;20113;-62
2020/12/12 11:16:33;;;;;;;4.75;3.17;;;22.90;45.90;;;;;;5116919;27;20082;-61
2020/12/12 11:18:59;;;;;;;5.00;3.40;;;22.90;46.00;;;;;;5136332;27;20030;-58
2020/12/12 11:21:25;;;;;;;7.63;3.90;;;22.90;46.00;;;;;;5118900;27;20083;-60
2020/12/12 11:23:51;;;;;;;4.93;3.50;;;22.90;46.00;;;;;;5116113;27;20035;-61
2020/12/12 11:26:17;;;;;;;4.50;2.90;;;22.90;46.00;;;;;;5114685;27;20031;-60
2020/12/12 11:28:45;;;;;;;4.75;3.28;;;23.00;46.20;;;;;;5126034;27;20031;-62
2020/12/12 11:31:19;;;;;;;6.50;3.50;;;23.00;46.00;;;;;;5122924;27;20023;-61
2020/12/12 11:33:48;;;;;;;4.85;3.40;;;23.00;45.90;;;;;;5096104;27;20090;-62
2020/12/12 11:48:47;;;;;;;4.40;3.08;;;23.00;46.00;;;;;;5111859;27;20039;-62
2020/12/12 11:51:13;;;;;;;4.75;3.40;;;23.00;46.00;;;;;;5118285;27;20024;-61
2020/12/12 11:53:38;;;;;;;5.78;3.60;;;23.10;45.90;;;;;;5114661;27;20023;-61
2020/12/12 11:56:04;;;;;;;5.53;3.30;;;23.10;45.80;;;;;;5116438;27;20372;-60
2020/12/12 11:58:30;;;;;;;5.65;3.10;;;23.10;45.90;;;;;;5133224;27;20380;-59
2020/12/12 12:00:56;;;;;;;5.93;3.25;;;23.10;45.90;;;;;;5130718;27;20081;-60
2020/12/12 12:03:21;;;;;;;4.63;3.10;;;23.10;45.90;;;;;;5138438;27;20035;-62
2020/12/12 12:05:49;;;;;;;5.57;3.33;;;23.10;46.40;;;;;;5126589;27;20034;-60
2020/12/12 12:08:25;;;;;;;5.78;3.10;;;23.10;45.90;;;;;;5113708;27;20147;-62
2020/12/12 12:11:33;;;;;;;6.78;3.20;;;23.10;45.90;;;;;;5125016;27;20080;-60
2020/12/12 12:13:39;;;;;;;5.00;3.30;;;23.10;45.90;;;;;;5107629;27;20039;-62
2020/12/12 12:16:05;;;;;;;4.45;2.95;;;23.20;45.80;;;;;;5119788;27;20039;-62
2020/12/12 12:18:31;;;;;;;4.97;3.05;;;23.20;45.80;;;;;;5140078;27;20031;-60
2020/12/12 12:20:58;;;;;;;4.93;2.90;;;23.10;45.70;;;;;;5138506;27;20099;-59
2020/12/12 12:23:24;;;;;;;5.35;3.10;;;23.10;45.80;;;;;;5114689;27;20032;-58
2020/12/12 12:25:51;;;;;;;6.10;3.13;;;23.10;45.90;;;;;;5126772;27;20027;-57
2020/12/12 12:28:18;;;;;;;6.80;3.10;;;23.10;46.00;;;;;;5140785;27;20102;-58
2020/12/12 12:30:44;;;;;;;5.65;3.00;;;23.10;46.00;;;;;;5140433;27;20065;-61
2020/12/12 12:33:09;;;;;;;4.95;3.20;;;23.10;46.10;;;;;;5110682;27;20577;-59
2020/12/12 12:35:35;;;;;;;4.45;2.88;;;23.20;46.10;;;;;;5122373;27;20385;-60
2020/12/12 12:38:00;;;;;;;5.05;2.90;;;23.20;45.90;;;;;;5122900;27;20026;-59
2020/12/12 12:40:26;;;;;;;6.32;3.13;;;23.20;46.00;;;;;;5119802;27;20035;-58
2020/12/12 12:42:51;;;;;;;4.63;2.95;;;23.20;46.00;;;;;;5123353;27;20031;-59
2020/12/12 12:45:17;;;;;;;4.65;3.20;;;23.10;46.00;;;;;;5131742;27;20414;-58
2020/12/12 12:47:42;;;;;;;4.65;3.00;;;23.10;46.10;;;;;;5134289;27;20165;-57
2020/12/12 12:50:08;;;;;;;7.32;3.42;;;23.10;46.20;;;;;;5127770;27;20031;-58
2020/12/12 12:52:34;;;;;;;5.30;3.15;;;23.10;46.40;;;;;;5122199;27;20492;-56
2020/12/12 12:54:59;;;;;;;5.85;2.83;;;23.00;46.40;;;;;;5122051;27;20171;-60
2020/12/12 12:57:25;;;;;;;4.28;2.80;;;23.00;46.40;;;;;;5120996;27;20049;-59
2020/12/12 12:59:50;;;;;;;6.57;3.10;;;23.00;46.60;;;;;;5127579;27;20148;-58
2020/12/12 13:02:16;;;;;;;3.28;2.50;;;23.00;46.70;;;;;;5121611;27;20068;-57
2020/12/12 13:04:42;;;;;;;4.03;2.55;;;22.90;46.70;;;;;;5122293;27;20690;-59